createdAt,value
2023-07-25T00:00:12.590Z,0
2023-07-25T00:01:28.719Z,0
2023-07-25T00:02:44.858Z,0
2023-07-25T00:04:00.978Z,0
2023-07-25T00:05:17.128Z,0
2023-07-25T00:06:33.273Z,0
2023-07-25T00:07:49.394Z,0
2023-07-25T00:09:05.524Z,0
2023-07-25T00:10:21.656Z,0
2023-07-25T00:11:37.820Z,0
2023-07-25T00:12:54.083Z,0
2023-07-25T00:14:10.208Z,0
2023-07-25T00:15:26.344Z,0
2023-07-25T00:16:42.473Z,0
2023-07-25T00:17:58.632Z,0
2023-07-25T00:19:14.757Z,0
2023-07-25T00:20:30.898Z,0
2023-07-25T00:21:47.026Z,0
2023-07-25T00:23:03.155Z,0
2023-07-25T00:24:19.295Z,0
2023-07-25T00:25:35.443Z,0
2023-07-25T00:26:51.571Z,0
2023-07-25T00:28:07.700Z,0
2023-07-25T00:29:23.832Z,0
2023-07-25T00:30:39.983Z,0
2023-07-25T00:31:56.130Z,0
2023-07-25T00:33:12.371Z,0
2023-07-25T00:34:28.501Z,0
2023-07-25T00:35:44.640Z,0
2023-07-25T00:37:00.792Z,0
2023-07-25T00:38:16.929Z,0
2023-07-25T00:39:33.058Z,0
2023-07-25T00:40:49.198Z,0
2023-07-25T00:42:05.328Z,0
2023-07-25T00:43:21.480Z,0
2023-07-25T00:44:37.617Z,0
2023-07-25T00:45:53.748Z,0
2023-07-25T00:48:26.007Z,0
2023-07-25T00:49:42.156Z,0
2023-07-25T00:50:58.416Z,0
2023-07-25T00:52:14.545Z,0
2023-07-25T00:53:30.686Z,0
2023-07-25T00:54:46.822Z,0
2023-07-25T00:56:02.955Z,0
2023-07-25T00:57:19.103Z,0
2023-07-25T00:58:35.233Z,0
2023-07-25T00:59:51.363Z,0
2023-07-25T01:01:07.498Z,0
2023-07-25T01:02:23.648Z,0
2023-07-25T01:03:39.782Z,0
2023-07-25T01:04:55.905Z,0
2023-07-25T01:06:12.045Z,0
2023-07-25T01:07:28.174Z,0
2023-07-25T01:08:44.329Z,0
2023-07-25T01:10:00.452Z,0
2023-07-25T01:11:16.714Z,0
2023-07-25T01:12:32.839Z,0
2023-07-25T01:13:48.989Z,0
2023-07-25T01:15:05.117Z,0
2023-07-25T01:16:21.262Z,0
2023-07-25T01:17:37.394Z,0
2023-07-25T01:18:53.532Z,0
2023-07-25T01:20:09.665Z,0
2023-07-25T01:21:25.804Z,0
2023-07-25T01:22:41.935Z,0
2023-07-25T01:23:58.077Z,0
2023-07-25T01:25:14.200Z,0
2023-07-25T01:26:30.337Z,0
2023-07-25T01:27:46.479Z,0
2023-07-25T01:29:02.735Z,0
2023-07-25T01:30:18.875Z,0
2023-07-25T01:31:35.003Z,0
2023-07-25T01:32:51.135Z,0
2023-07-25T01:34:07.292Z,0
2023-07-25T01:35:23.425Z,0
2023-07-25T01:36:39.569Z,0
2023-07-25T01:37:55.684Z,0
2023-07-25T01:39:11.817Z,0
2023-07-25T01:40:27.974Z,0
2023-07-25T01:41:44.115Z,0
2023-07-25T01:43:00.247Z,0
2023-07-25T01:44:16.373Z,0
2023-07-25T01:45:32.505Z,0
2023-07-25T01:46:48.655Z,0
2023-07-25T01:48:04.790Z,0
2023-07-25T01:49:21.037Z,0
2023-07-25T01:50:37.173Z,0
2023-07-25T01:51:53.310Z,0
2023-07-25T01:53:09.466Z,0
2023-07-25T01:54:25.600Z,0
2023-07-25T01:55:41.717Z,0
2023-07-25T01:56:57.862Z,0
2023-07-25T01:58:13.991Z,0
2023-07-25T01:59:30.145Z,0
2023-07-25T02:00:46.268Z,0
2023-07-25T02:02:02.399Z,0
2023-07-25T02:03:18.530Z,0
2023-07-25T02:04:34.665Z,0
2023-07-25T02:05:50.811Z,0
2023-07-25T02:07:07.073Z,0
2023-07-25T02:08:23.211Z,0
2023-07-25T02:09:39.342Z,0
2023-07-25T02:10:55.471Z,0
2023-07-25T02:12:11.626Z,0
2023-07-25T02:13:27.761Z,0
2023-07-25T02:14:43.894Z,0
2023-07-25T02:16:00.025Z,0
2023-07-25T02:17:16.149Z,0
2023-07-25T02:18:32.296Z,0
2023-07-25T02:19:48.445Z,0
2023-07-25T02:21:04.571Z,0
2023-07-25T02:22:20.702Z,0
2023-07-25T02:23:36.832Z,0
2023-07-25T02:24:52.977Z,0
2023-07-25T02:26:09.116Z,0
2023-07-25T02:27:25.368Z,0
2023-07-25T02:28:41.505Z,0
2023-07-25T02:29:57.646Z,0
2023-07-25T02:31:13.777Z,0
2023-07-25T02:32:29.922Z,0
2023-07-25T02:33:46.041Z,0
2023-07-25T02:35:02.178Z,0
2023-07-25T02:36:18.317Z,0
2023-07-25T02:37:34.461Z,0
2023-07-25T02:38:50.609Z,0
2023-07-25T02:40:06.722Z,0
2023-07-25T02:41:22.869Z,0
2023-07-25T02:42:39.005Z,0
2023-07-25T02:43:55.149Z,0
2023-07-25T02:45:11.396Z,0
2023-07-25T02:46:27.532Z,0
2023-07-25T02:47:43.664Z,0
2023-07-25T02:48:59.798Z,0
2023-07-25T02:50:15.957Z,0
2023-07-25T02:51:32.075Z,0
2023-07-25T02:52:48.207Z,0
2023-07-25T02:54:04.349Z,0
2023-07-25T02:55:20.479Z,4
2023-07-25T02:56:36.633Z,4
2023-07-25T02:57:52.756Z,4
2023-07-25T02:59:08.889Z,0
2023-07-25T03:00:25.036Z,4
2023-07-25T03:01:41.158Z,4
2023-07-25T03:02:57.311Z,4
2023-07-25T03:04:13.436Z,4
2023-07-25T03:05:29.699Z,8
2023-07-25T03:06:45.833Z,8
2023-07-25T03:08:01.972Z,12
2023-07-25T03:09:18.122Z,12
2023-07-25T03:10:34.244Z,12
2023-07-25T03:11:50.377Z,16
2023-07-25T03:13:06.504Z,16
2023-07-25T03:14:22.653Z,20
2023-07-25T03:15:38.792Z,24
2023-07-25T03:16:54.927Z,28
2023-07-25T03:18:11.068Z,28
2023-07-25T03:19:27.185Z,32
2023-07-25T03:20:43.326Z,32
2023-07-25T03:21:59.483Z,36
2023-07-25T03:23:15.728Z,36
2023-07-25T03:24:31.869Z,40
2023-07-25T03:25:48.004Z,48
2023-07-25T03:27:04.132Z,52
2023-07-25T03:28:20.286Z,56
2023-07-25T03:29:36.405Z,68
2023-07-25T03:30:52.538Z,76
2023-07-25T03:32:08.676Z,80
2023-07-25T03:33:24.810Z,92
2023-07-25T03:34:40.963Z,100
2023-07-25T03:35:57.081Z,104
2023-07-25T03:37:13.219Z,124
2023-07-25T03:38:29.360Z,140
2023-07-25T03:39:45.482Z,156
2023-07-25T03:41:01.628Z,168
2023-07-25T03:42:17.764Z,188
2023-07-25T03:43:34.020Z,200
2023-07-25T03:44:50.167Z,204
2023-07-25T03:46:06.300Z,208
2023-07-25T03:47:22.442Z,208
2023-07-25T03:48:38.569Z,216
2023-07-25T03:49:54.702Z,232
2023-07-25T03:51:10.848Z,248
2023-07-25T03:52:26.964Z,264
2023-07-25T03:53:43.114Z,276
2023-07-25T03:54:59.258Z,288
2023-07-25T03:56:15.390Z,296
2023-07-25T03:57:31.522Z,320
2023-07-25T03:58:47.656Z,348
2023-07-25T04:00:03.796Z,372
2023-07-25T04:01:20.051Z,380
2023-07-25T04:02:36.180Z,400
2023-07-25T04:03:52.319Z,408
2023-07-25T04:05:08.462Z,448
2023-07-25T04:06:24.610Z,472
2023-07-25T04:07:40.736Z,456
2023-07-25T04:08:56.873Z,448
2023-07-25T04:10:12.997Z,460
2023-07-25T04:11:29.141Z,468
2023-07-25T04:12:45.282Z,484
2023-07-25T04:14:01.415Z,512
2023-07-25T04:15:17.547Z,532
2023-07-25T04:16:33.691Z,524
2023-07-25T04:17:49.824Z,548
2023-07-25T04:19:05.954Z,600
2023-07-25T04:20:22.100Z,644
2023-07-25T04:21:38.348Z,700
2023-07-25T04:22:54.480Z,784
2023-07-25T04:24:10.624Z,932
2023-07-25T04:25:26.759Z,1036
2023-07-25T04:26:42.896Z,1108
2023-07-25T04:27:59.033Z,1164
2023-07-25T04:29:15.287Z,1168
2023-07-25T04:30:31.421Z,1200
2023-07-25T04:31:47.583Z,1304
2023-07-25T04:33:03.719Z,1352
2023-07-25T04:34:19.835Z,1400
2023-07-25T04:35:35.977Z,1436
2023-07-25T04:36:52.101Z,1448
2023-07-25T04:38:08.257Z,1440
2023-07-25T04:39:24.384Z,1480
2023-07-25T04:40:40.516Z,1532
2023-07-25T04:41:56.671Z,1560
2023-07-25T04:43:12.782Z,1544
2023-07-25T04:44:28.937Z,1596
2023-07-25T04:45:45.067Z,1560
2023-07-25T04:47:01.333Z,1472
2023-07-25T04:48:17.456Z,1436
2023-07-25T04:49:33.592Z,1464
2023-07-25T04:50:49.748Z,1580
2023-07-25T04:52:05.882Z,1736
2023-07-25T04:53:22.008Z,1892
2023-07-25T04:54:38.146Z,1932
2023-07-25T04:55:54.272Z,1904
2023-07-25T04:57:10.422Z,1832
2023-07-25T04:58:26.555Z,1764
2023-07-25T04:59:42.693Z,1664
2023-07-25T05:00:58.822Z,1544
2023-07-25T05:02:14.959Z,1468
2023-07-25T05:03:31.097Z,1460
2023-07-25T05:04:47.365Z,1548
2023-07-25T05:06:03.503Z,1588
2023-07-25T05:07:19.637Z,1584
2023-07-25T05:08:35.750Z,1592
2023-07-25T05:09:51.902Z,1660
2023-07-25T05:11:08.035Z,2008
2023-07-25T05:12:24.178Z,1832
2023-07-25T05:13:40.316Z,2088
2023-07-25T05:14:56.448Z,1988
2023-07-25T05:16:12.589Z,3328
2023-07-25T05:17:28.733Z,2776
2023-07-25T05:18:44.847Z,2024
2023-07-25T05:20:00.995Z,2716
2023-07-25T05:21:17.122Z,2072
2023-07-25T05:22:33.278Z,2544
2023-07-25T05:23:49.406Z,1904
2023-07-25T05:25:05.667Z,2024
2023-07-25T05:26:21.796Z,2844
2023-07-25T05:27:37.930Z,2880
2023-07-25T05:28:54.066Z,2652
2023-07-25T05:30:10.200Z,3212
2023-07-25T05:31:26.335Z,2940
2023-07-25T05:32:42.481Z,2512
2023-07-25T05:33:58.605Z,2304
2023-07-25T05:35:14.768Z,1844
2023-07-25T05:36:30.890Z,1732
2023-07-25T05:37:47.031Z,2556
2023-07-25T05:39:03.164Z,2112
2023-07-25T05:40:19.288Z,2652
2023-07-25T05:41:35.436Z,2176
2023-07-25T05:42:51.694Z,3004
2023-07-25T05:44:07.836Z,3852
2023-07-25T05:45:23.973Z,3948
2023-07-25T05:46:40.089Z,3920
2023-07-25T05:47:56.246Z,3980
2023-07-25T05:49:12.376Z,3824
2023-07-25T05:50:28.506Z,3924
2023-07-25T05:51:44.641Z,3768
2023-07-25T05:53:00.787Z,3712
2023-07-25T05:54:16.928Z,4016
2023-07-25T05:55:33.061Z,4232
2023-07-25T05:56:49.189Z,4352
2023-07-25T05:58:05.329Z,4288
2023-07-25T05:59:21.464Z,4168
2023-07-25T06:00:37.615Z,4240
2023-07-25T06:01:53.732Z,3368
2023-07-25T06:03:09.998Z,3236
2023-07-25T06:04:26.128Z,2204
2023-07-25T06:05:42.267Z,3124
2023-07-25T06:06:58.401Z,1992
2023-07-25T06:08:14.549Z,1520
2023-07-25T06:09:30.671Z,1952
2023-07-25T06:10:46.818Z,2116
2023-07-25T06:12:02.936Z,2108
2023-07-25T06:13:19.092Z,2480
2023-07-25T06:14:35.232Z,3276
2023-07-25T06:15:51.358Z,3788
2023-07-25T06:17:07.485Z,3908
2023-07-25T06:18:23.621Z,3848
2023-07-25T06:19:39.767Z,5152
2023-07-25T06:20:56.015Z,5672
2023-07-25T06:22:12.153Z,5732
2023-07-25T06:23:28.286Z,5044
2023-07-25T06:24:44.427Z,3512
2023-07-25T06:26:00.570Z,1812
2023-07-25T06:27:16.706Z,1212
2023-07-25T06:28:32.833Z,1292
2023-07-25T06:29:48.973Z,1532
2023-07-25T06:31:05.108Z,1832
2023-07-25T06:32:21.256Z,2088
2023-07-25T06:33:37.377Z,2320
2023-07-25T06:34:53.527Z,2560
2023-07-25T06:36:09.659Z,2792
2023-07-25T06:37:25.780Z,2900
2023-07-25T06:38:41.934Z,3180
2023-07-25T06:39:58.062Z,3324
2023-07-25T06:41:14.322Z,3164
2023-07-25T06:42:30.451Z,2400
2023-07-25T06:43:46.589Z,2284
2023-07-25T06:45:02.736Z,2792
2023-07-25T06:46:18.867Z,3884
2023-07-25T06:47:34.991Z,4220
2023-07-25T06:48:51.139Z,4684
2023-07-25T06:50:07.275Z,5564
2023-07-25T06:51:23.409Z,6236
2023-07-25T06:52:39.545Z,6736
2023-07-25T06:53:55.682Z,6452
2023-07-25T06:55:11.823Z,5552
2023-07-25T06:56:27.947Z,4548
2023-07-25T06:57:44.096Z,4008
2023-07-25T06:59:00.355Z,2872
2023-07-25T07:00:16.487Z,2528
2023-07-25T07:01:32.616Z,2404
2023-07-25T07:02:48.746Z,3056
2023-07-25T07:04:04.890Z,2804
2023-07-25T07:05:21.035Z,2576
2023-07-25T07:06:37.165Z,2964
2023-07-25T07:07:53.289Z,3400
2023-07-25T07:09:09.432Z,2436
2023-07-25T07:10:25.570Z,3088
2023-07-25T07:11:41.721Z,4044
2023-07-25T07:12:57.841Z,4000
2023-07-25T07:14:13.979Z,3740
2023-07-25T07:15:30.102Z,3504
2023-07-25T07:16:46.263Z,3660
2023-07-25T07:18:02.388Z,4024
2023-07-25T07:19:18.639Z,4464
2023-07-25T07:20:34.785Z,4532
2023-07-25T07:21:50.918Z,4544
2023-07-25T07:23:07.056Z,4520
2023-07-25T07:24:23.198Z,4748
2023-07-25T07:25:39.323Z,5036
2023-07-25T07:26:55.462Z,5140
2023-07-25T07:28:11.604Z,4748
2023-07-25T07:29:27.746Z,4244
2023-07-25T07:30:43.882Z,3276
2023-07-25T07:32:00.004Z,3604
2023-07-25T07:33:16.144Z,4480
2023-07-25T07:34:32.270Z,5100
2023-07-25T07:35:48.426Z,5472
2023-07-25T07:37:04.683Z,6156
2023-07-25T07:38:20.806Z,8476
2023-07-25T07:39:36.948Z,6644
2023-07-25T07:40:53.087Z,7268
2023-07-25T07:42:09.232Z,8232
2023-07-25T07:43:25.361Z,9708
2023-07-25T07:44:41.495Z,8984
2023-07-25T07:45:57.629Z,9204
2023-07-25T07:47:13.768Z,8084
2023-07-25T07:48:29.914Z,7512
2023-07-25T07:49:46.043Z,7436
2023-07-25T07:51:02.186Z,5696
2023-07-25T07:52:18.000Z,5296
2023-07-25T07:53:34.443Z,5000
2023-07-25T07:54:50.582Z,4672
2023-07-25T07:56:06.716Z,4084
2023-07-25T07:57:22.981Z,3248
2023-07-25T07:58:39.123Z,2764
2023-07-25T07:59:55.254Z,2476
2023-07-25T08:01:11.402Z,2200
2023-07-25T08:02:27.525Z,2288
2023-07-25T08:03:43.657Z,2996
2023-07-25T08:04:59.799Z,4484
2023-07-25T08:06:15.922Z,6960
2023-07-25T08:07:32.075Z,9416
2023-07-25T08:08:48.209Z,11096
2023-07-25T08:10:04.337Z,66272
2023-07-25T08:11:20.469Z,37088
2023-07-25T08:12:36.609Z,12176
2023-07-25T08:13:52.764Z,21248
2023-07-25T08:15:09.020Z,55872
2023-07-25T08:16:25.156Z,57376
2023-07-25T08:17:41.287Z,62368
2023-07-25T08:18:57.413Z,64224
2023-07-25T08:20:13.555Z,58496
2023-07-25T08:21:29.687Z,10520
2023-07-25T08:22:45.821Z,8272
2023-07-25T08:24:01.954Z,11216
2023-07-25T08:25:18.094Z,8244
2023-07-25T08:26:34.250Z,6812
2023-07-25T08:27:50.387Z,12672
2023-07-25T08:29:06.520Z,4608
2023-07-25T08:30:22.641Z,5860
2023-07-25T08:31:38.779Z,7516
2023-07-25T08:32:54.932Z,40064
2023-07-25T08:34:11.066Z,58240
2023-07-25T08:35:27.320Z,4592
2023-07-25T08:36:43.458Z,3488
2023-07-25T08:37:59.592Z,3712
2023-07-25T08:39:15.739Z,4104
2023-07-25T08:40:31.865Z,5600
2023-07-25T08:41:48.008Z,71424
2023-07-25T08:43:04.125Z,50848
2023-07-25T08:44:20.256Z,70880
2023-07-25T08:45:36.412Z,39296
2023-07-25T08:46:52.538Z,78720
2023-07-25T08:48:08.805Z,64256
2023-07-25T08:49:24.932Z,69472
2023-07-25T08:50:41.070Z,75360
2023-07-25T08:51:57.223Z,79296
2023-07-25T08:53:13.000Z,81376
2023-07-25T08:54:29.489Z,82496
2023-07-25T08:55:45.624Z,83584
2023-07-25T08:57:01.757Z,84224
2023-07-25T08:58:17.903Z,79296
2023-07-25T08:59:34.038Z,84960
2023-07-25T09:00:50.177Z,23680
2023-07-25T09:02:06.311Z,44576
2023-07-25T09:03:22.447Z,71296
2023-07-25T09:04:38.597Z,71488
2023-07-25T09:05:54.847Z,76640
2023-07-25T09:07:10.988Z,80064
2023-07-25T09:08:27.122Z,20928
2023-07-25T09:09:43.257Z,7696
2023-07-25T09:10:59.388Z,6520
2023-07-25T09:12:15.522Z,5076
2023-07-25T09:13:31.665Z,3900
2023-07-25T09:14:47.790Z,2944
2023-07-25T09:16:03.938Z,2416
2023-07-25T09:17:20.075Z,2228
2023-07-25T09:18:36.210Z,2100
2023-07-25T09:19:52.348Z,2624
2023-07-25T09:21:08.486Z,3864
2023-07-25T09:22:24.610Z,5680
2023-07-25T09:23:40.759Z,10052
2023-07-25T09:24:56.907Z,11052
2023-07-25T09:26:13.161Z,8580
2023-07-25T09:27:29.283Z,7772
2023-07-25T09:28:45.423Z,12784
2023-07-25T09:30:01.561Z,80736
2023-07-25T09:31:17.695Z,81376
2023-07-25T09:32:33.844Z,83840
2023-07-25T09:33:49.975Z,85408
2023-07-25T09:35:06.101Z,86816
2023-07-25T09:36:22.260Z,68512
2023-07-25T09:37:38.378Z,84512
2023-07-25T09:38:54.528Z,83712
2023-07-25T09:40:10.660Z,82784
2023-07-25T09:41:26.780Z,72608
2023-07-25T09:42:42.937Z,86368
2023-07-25T09:43:59.200Z,89792
2023-07-25T09:45:15.340Z,90880
2023-07-25T09:46:31.458Z,69120
2023-07-25T09:47:47.598Z,91840
2023-07-25T09:49:03.749Z,92576
2023-07-25T09:50:19.884Z,13172
2023-07-25T09:51:36.006Z,20240
2023-07-25T09:52:52.142Z,9556
2023-07-25T09:54:08.281Z,10752
2023-07-25T09:55:24.437Z,8172
2023-07-25T09:56:40.569Z,7768
2023-07-25T09:57:56.699Z,7032
2023-07-25T09:59:12.829Z,6584
2023-07-25T10:00:28.972Z,7368
2023-07-25T10:01:45.117Z,9640
2023-07-25T10:03:01.239Z,27488
2023-07-25T10:04:17.503Z,26080
2023-07-25T10:05:33.642Z,24704
2023-07-25T10:06:49.780Z,13096
2023-07-25T10:08:05.917Z,10408
2023-07-25T10:09:22.045Z,11332
2023-07-25T10:10:38.190Z,9616
2023-07-25T10:11:54.323Z,8304
2023-07-25T10:13:10.447Z,7716
2023-07-25T10:14:26.596Z,7444
2023-07-25T10:15:42.744Z,7032
2023-07-25T10:16:58.873Z,6484
2023-07-25T10:18:15.010Z,5080
2023-07-25T10:19:31.135Z,3780
2023-07-25T10:20:47.296Z,3812
2023-07-25T10:22:03.551Z,4680
2023-07-25T10:23:19.669Z,5736
2023-07-25T10:24:35.820Z,6764
2023-07-25T10:25:51.948Z,8276
2023-07-25T10:27:08.093Z,12200
2023-07-25T10:28:24.235Z,9876
2023-07-25T10:29:40.363Z,10476
2023-07-25T10:30:56.487Z,19368
2023-07-25T10:32:12.621Z,13904
2023-07-25T10:33:28.768Z,13704
2023-07-25T10:34:44.915Z,32416
2023-07-25T10:36:01.038Z,30368
2023-07-25T10:37:17.185Z,29760
2023-07-25T10:38:33.316Z,30304
2023-07-25T10:39:49.451Z,31424
2023-07-25T10:41:05.591Z,16432
2023-07-25T10:42:21.858Z,14244
2023-07-25T10:43:37.980Z,11232
2023-07-25T10:44:54.126Z,11216
2023-07-25T10:46:10.260Z,10752
2023-07-25T10:47:26.397Z,10572
2023-07-25T10:48:42.525Z,9864
2023-07-25T10:49:58.667Z,9280
2023-07-25T10:51:14.794Z,8528
2023-07-25T10:52:30.940Z,7848
2023-07-25T10:53:47.090Z,7392
2023-07-25T10:55:03.225Z,7296
2023-07-25T10:56:19.360Z,7540
2023-07-25T10:57:35.487Z,7996
2023-07-25T10:58:51.639Z,8264
2023-07-25T11:00:07.881Z,8012
2023-07-25T11:01:24.015Z,7864
2023-07-25T11:02:40.162Z,8204
2023-07-25T11:03:56.281Z,8748
2023-07-25T11:05:12.442Z,8156
2023-07-25T11:06:28.570Z,8628
2023-07-25T11:07:44.700Z,39808
2023-07-25T11:09:00.839Z,23808
2023-07-25T11:10:16.964Z,14116
2023-07-25T11:11:33.118Z,15232
2023-07-25T11:12:49.255Z,13980
2023-07-25T11:14:05.389Z,39616
2023-07-25T11:15:21.517Z,32320
2023-07-25T11:16:37.659Z,36768
2023-07-25T11:17:53.792Z,33216
2023-07-25T11:19:09.932Z,25376
2023-07-25T11:20:26.202Z,38784
2023-07-25T11:21:42.319Z,36864
2023-07-25T11:22:58.465Z,36672
2023-07-25T11:24:14.607Z,36000
2023-07-25T11:25:30.752Z,35744
2023-07-25T11:26:46.871Z,34976
2023-07-25T11:28:03.008Z,31296
2023-07-25T11:29:19.147Z,21696
2023-07-25T11:30:35.293Z,32352
2023-07-25T11:31:51.418Z,28192
2023-07-25T11:33:07.566Z,21504
2023-07-25T11:34:23.695Z,17368
2023-07-25T11:35:39.829Z,11932
2023-07-25T11:36:55.978Z,8684
2023-07-25T11:38:12.234Z,8196
2023-07-25T11:39:28.363Z,7692
2023-07-25T11:40:44.509Z,7716
2023-07-25T11:42:00.643Z,7948
2023-07-25T11:43:16.793Z,8180
2023-07-25T11:44:32.925Z,8308
2023-07-25T11:45:49.059Z,8364
2023-07-25T11:47:05.179Z,8268
2023-07-25T11:48:21.319Z,8132
2023-07-25T11:49:37.459Z,7892
2023-07-25T11:50:53.595Z,7620
2023-07-25T11:52:09.732Z,7424
2023-07-25T11:53:25.859Z,7204
2023-07-25T11:54:42.010Z,6892
2023-07-25T11:55:58.139Z,6492
2023-07-25T11:57:14.282Z,6056
2023-07-25T11:58:30.543Z,5744
2023-07-25T11:59:46.662Z,5556
2023-07-25T12:01:02.798Z,5612
2023-07-25T12:02:18.953Z,5756
2023-07-25T12:03:35.084Z,6204
2023-07-25T12:04:51.221Z,6996
2023-07-25T12:06:07.354Z,7888
2023-07-25T12:07:23.493Z,8680
2023-07-25T12:08:39.644Z,9312
2023-07-25T12:09:55.780Z,9584
2023-07-25T12:11:11.897Z,9224
2023-07-25T12:12:28.047Z,8396
2023-07-25T12:13:44.172Z,7712
2023-07-25T12:15:00.321Z,7516
2023-07-25T12:16:16.578Z,7420
2023-07-25T12:17:32.715Z,7276
2023-07-25T12:18:48.842Z,7168
2023-07-25T12:20:04.987Z,7036
2023-07-25T12:21:21.123Z,6944
2023-07-25T12:22:37.256Z,6900
2023-07-25T12:23:53.383Z,6912
2023-07-25T12:25:09.532Z,7124
2023-07-25T12:26:25.671Z,7368
2023-07-25T12:27:41.000Z,7508
2023-07-25T12:28:57.938Z,7640
2023-07-25T12:30:14.074Z,7692
2023-07-25T12:31:30.210Z,7676
2023-07-25T12:32:46.333Z,7748
2023-07-25T12:34:02.483Z,7748
2023-07-25T12:35:18.627Z,7636
2023-07-25T12:36:34.880Z,7408
2023-07-25T12:37:51.015Z,7160
2023-07-25T12:39:07.154Z,7052
2023-07-25T12:40:23.288Z,6968
2023-07-25T12:41:39.428Z,6972
2023-07-25T12:42:55.558Z,6976
2023-07-25T12:44:11.705Z,6804
2023-07-25T12:45:27.821Z,6872
2023-07-25T12:46:43.980Z,7228
2023-07-25T12:48:00.105Z,7380
2023-07-25T12:49:16.239Z,7352
2023-07-25T12:50:32.376Z,7188
2023-07-25T12:51:48.518Z,6956
2023-07-25T12:53:04.657Z,6684
2023-07-25T12:54:20.919Z,6456
2023-07-25T12:55:37.047Z,6232
2023-07-25T12:56:53.179Z,6096
2023-07-25T12:58:09.314Z,5980
2023-07-25T12:59:25.462Z,5852
2023-07-25T13:00:41.606Z,5744
2023-07-25T13:01:57.738Z,5652
2023-07-25T13:03:13.863Z,5764
2023-07-25T13:04:30.121Z,6096
2023-07-25T13:05:46.264Z,6568
2023-07-25T13:07:02.397Z,6876
2023-07-25T13:08:18.542Z,6796
2023-07-25T13:09:34.675Z,6444
2023-07-25T13:10:50.808Z,5888
2023-07-25T13:12:06.945Z,5340
2023-07-25T13:13:23.082Z,4916
2023-07-25T13:14:39.227Z,4692
2023-07-25T13:15:55.341Z,4632
2023-07-25T13:17:11.475Z,4752
2023-07-25T13:18:27.637Z,4936
2023-07-25T13:19:43.775Z,5116
2023-07-25T13:20:59.906Z,5404
2023-07-25T13:22:16.148Z,5740
2023-07-25T13:23:32.295Z,5944
2023-07-25T13:24:48.431Z,5972
2023-07-25T13:26:04.560Z,6136
2023-07-25T13:27:20.704Z,6172
2023-07-25T13:28:36.829Z,6036
2023-07-25T13:29:52.976Z,5736
2023-07-25T13:31:09.115Z,5408
2023-07-25T13:32:25.246Z,4988
2023-07-25T13:33:41.375Z,4544
2023-07-25T13:34:57.527Z,4392
2023-07-25T13:36:13.655Z,4536
2023-07-25T13:37:29.793Z,4616
2023-07-25T13:38:45.923Z,4740
2023-07-25T13:40:02.179Z,4716
2023-07-25T13:41:18.331Z,4592
2023-07-25T13:42:34.455Z,4428
2023-07-25T13:43:50.597Z,4340
2023-07-25T13:45:06.731Z,4276
2023-07-25T13:46:22.872Z,4304
2023-07-25T13:47:38.996Z,4324
2023-07-25T13:48:55.146Z,4280
2023-07-25T13:50:11.280Z,4196
2023-07-25T13:51:27.421Z,4200
2023-07-25T13:52:43.542Z,4332
2023-07-25T13:53:59.676Z,4524
2023-07-25T13:55:15.819Z,4648
2023-07-25T13:56:31.963Z,4672
2023-07-25T13:57:48.219Z,4636
2023-07-25T13:59:04.363Z,4588
2023-07-25T14:00:20.491Z,4516
2023-07-25T14:01:36.617Z,4472
2023-07-25T14:02:52.775Z,4468
2023-07-25T14:04:08.899Z,4504
2023-07-25T14:05:25.046Z,4556
2023-07-25T14:06:41.161Z,4476
2023-07-25T14:07:57.313Z,4332
2023-07-25T14:09:13.455Z,4304
2023-07-25T14:10:29.576Z,4244
2023-07-25T14:13:01.846Z,4604
2023-07-25T14:14:17.995Z,4716
2023-07-25T14:15:34.134Z,4784
2023-07-25T14:16:50.272Z,4792
2023-07-25T14:18:06.515Z,4788
2023-07-25T14:19:22.651Z,4720
2023-07-25T14:20:38.785Z,4604
2023-07-25T14:21:54.943Z,4308
2023-07-25T14:23:11.066Z,4108
2023-07-25T14:24:27.197Z,4080
2023-07-25T14:25:43.342Z,4136
2023-07-25T14:26:59.472Z,4088
2023-07-25T14:28:15.620Z,3900
2023-07-25T14:29:31.756Z,3588
2023-07-25T14:30:47.891Z,3288
2023-07-25T14:32:04.021Z,3428
2023-07-25T14:33:20.157Z,3628
2023-07-25T14:34:36.292Z,3732
2023-07-25T14:35:52.561Z,3868
2023-07-25T14:37:08.691Z,3660
2023-07-25T14:38:24.821Z,3360
2023-07-25T14:39:40.958Z,3112
2023-07-25T14:40:57.107Z,3008
2023-07-25T14:42:13.243Z,2972
2023-07-25T14:43:29.371Z,3056
2023-07-25T14:44:45.500Z,3180
2023-07-25T14:46:01.640Z,3328
2023-07-25T14:47:17.777Z,3172
2023-07-25T14:48:33.923Z,2904
2023-07-25T14:49:50.041Z,2696
2023-07-25T14:51:06.184Z,2540
2023-07-25T14:52:22.318Z,2476
2023-07-25T14:53:38.461Z,2580
2023-07-25T14:54:54.602Z,2784
2023-07-25T14:56:10.861Z,3084
2023-07-25T14:57:26.975Z,3504
2023-07-25T14:58:43.108Z,3968
2023-07-25T14:59:59.273Z,4308
2023-07-25T15:01:15.407Z,4540
2023-07-25T15:02:31.537Z,4684
2023-07-25T15:03:47.657Z,4728
2023-07-25T15:05:03.806Z,4708
2023-07-25T15:06:19.940Z,4680
2023-07-25T15:07:36.079Z,4660
2023-07-25T15:08:52.223Z,4668
2023-07-25T15:10:08.346Z,4740
2023-07-25T15:11:24.487Z,4968
2023-07-25T15:12:40.625Z,5064
2023-07-25T15:13:56.877Z,5120
2023-07-25T15:15:13.026Z,4984
2023-07-25T15:16:29.156Z,4772
2023-07-25T15:17:45.291Z,4668
2023-07-25T15:19:01.430Z,4568
2023-07-25T15:20:17.557Z,4528
2023-07-25T15:21:33.698Z,4684
2023-07-25T15:22:49.825Z,4812
2023-07-25T15:24:05.973Z,4944
2023-07-25T15:25:22.106Z,4960
2023-07-25T15:26:38.254Z,5036
2023-07-25T15:27:54.371Z,4852
2023-07-25T15:29:10.520Z,4460
2023-07-25T15:30:26.646Z,3964
2023-07-25T15:31:42.795Z,3560
2023-07-25T15:32:58.929Z,3200
2023-07-25T15:34:15.177Z,2996
2023-07-25T15:35:31.306Z,2988
2023-07-25T15:36:47.448Z,3000
2023-07-25T15:38:03.588Z,2936
2023-07-25T15:39:19.721Z,2964
2023-07-25T15:40:35.871Z,2856
2023-07-25T15:41:52.003Z,2848
2023-07-25T15:43:08.137Z,2888
2023-07-25T15:44:24.273Z,3024
2023-07-25T15:45:40.411Z,3004
2023-07-25T15:46:56.540Z,3164
2023-07-25T15:48:12.683Z,3308
2023-07-25T15:49:28.810Z,3240
2023-07-25T15:50:44.953Z,2840
2023-07-25T15:52:01.216Z,2428
2023-07-25T15:53:17.342Z,2292
2023-07-25T15:54:33.487Z,2232
2023-07-25T15:55:49.618Z,2360
2023-07-25T15:57:05.767Z,2864
2023-07-25T15:58:21.883Z,3064
2023-07-25T15:59:38.032Z,2952
2023-07-25T16:00:54.162Z,2808
2023-07-25T16:02:10.285Z,2864
2023-07-25T16:03:26.431Z,2796
2023-07-25T16:04:42.577Z,2516
2023-07-25T16:05:58.709Z,2324
2023-07-25T16:07:14.842Z,2136
2023-07-25T16:08:30.968Z,2032
2023-07-25T16:09:47.114Z,2012
2023-07-25T16:11:03.245Z,2032
2023-07-25T16:12:19.516Z,2096
2023-07-25T16:13:35.644Z,2064
2023-07-25T16:14:51.781Z,1952
2023-07-25T16:16:07.928Z,1788
2023-07-25T16:17:24.047Z,1588
2023-07-25T16:18:40.193Z,1452
2023-07-25T16:19:56.331Z,1380
2023-07-25T16:21:12.462Z,1376
2023-07-25T16:22:28.610Z,1352
2023-07-25T16:23:44.744Z,1356
2023-07-25T16:25:00.868Z,1420
2023-07-25T16:26:17.002Z,1476
2023-07-25T16:27:33.141Z,1480
2023-07-25T16:28:49.289Z,1448
2023-07-25T16:30:05.543Z,1400
2023-07-25T16:31:21.679Z,1352
2023-07-25T16:32:37.812Z,1284
2023-07-25T16:33:53.939Z,1268
2023-07-25T16:35:10.103Z,1492
2023-07-25T16:36:26.233Z,1496
2023-07-25T16:37:42.357Z,1360
2023-07-25T16:38:58.494Z,1268
2023-07-25T16:40:14.635Z,1240
2023-07-25T16:41:30.784Z,1248
2023-07-25T16:42:46.913Z,1204
2023-07-25T16:44:03.043Z,1176
2023-07-25T16:45:19.173Z,1172
2023-07-25T16:46:35.316Z,1160
2023-07-25T16:47:51.466Z,1164
2023-07-25T16:49:07.581Z,1164
2023-07-25T16:50:23.847Z,1164
2023-07-25T16:51:39.983Z,1188
2023-07-25T16:52:56.103Z,1176
2023-07-25T16:54:12.266Z,1212
2023-07-25T16:55:28.398Z,1220
2023-07-25T16:56:44.527Z,1192
2023-07-25T16:58:00.655Z,1204
2023-07-25T16:59:16.792Z,1256
2023-07-25T17:00:32.947Z,1328
2023-07-25T17:01:49.080Z,1420
2023-07-25T17:03:05.203Z,1444
2023-07-25T17:04:21.344Z,1452
2023-07-25T17:05:37.473Z,1496
2023-07-25T17:06:53.621Z,1540
2023-07-25T17:08:09.883Z,1572
2023-07-25T17:09:26.007Z,1584
2023-07-25T17:10:42.141Z,1588
2023-07-25T17:11:58.278Z,1596
2023-07-25T17:13:14.432Z,1576